Time;durP1;ratioP1;P1;durP2;ratioP2;P2;SDS_P1;SDS_P2;PMS_P1;PMS_P2;Temp;Humidity;BMP_temperature;BMP_pressure;BME280_temperature;BME280_humidity;BME280_pressure;Samples;Min_cycle;Max_cycle;Signal;HPM_P1;HPM_P2
2022/06/10 00:01:47;;;;;;;8.23;0.45;;;;;;;20.84;48.00;102004.69;16216072;19;128681;-56
2022/06/10 00:07:09;;;;;;;0.63;0.20;;;;;;;20.83;48.22;102002.97;16232258;19;128204;-58
2022/06/10 00:12:30;;;;;;;0.47;0.20;;;;;;;20.83;48.43;102004.94;16232230;19;128297;-57
2022/06/10 00:17:52;;;;;;;1.45;0.25;;;;;;;20.81;47.96;101999.59;16232936;19;129539;-57
2022/06/10 00:23:14;;;;;;;0.28;0.10;;;;;;;20.81;48.18;102007.91;16231527;19;128500;-57
2022/06/10 00:28:36;;;;;;;1.50;0.20;;;;;;;20.82;48.20;102011.56;16229688;19;130953;-58
2022/06/10 00:33:58;;;;;;;1.00;0.30;;;;;;;20.80;48.23;102008.16;16229462;19;128566;-54
2022/06/10 00:39:20;;;;;;;1.02;0.30;;;;;;;20.78;47.98;101994.50;16231218;19;128214;-58
2022/06/10 00:44:45;;;;;;;0.70;0.22;;;;;;;20.78;47.98;101990.88;16231521;19;129264;-57
2022/06/10 00:50:24;;;;;;;0.50;0.28;;;;;;;20.78;48.41;101994.50;16225023;19;128762;-58
2022/06/10 00:55:51;;;;;;;1.00;0.20;;;;;;;20.76;48.37;101991.13;16226783;19;128807;-57
2022/06/10 01:01:15;;;;;;;0.40;0.10;;;;;;;20.75;47.93;101997.72;16229146;19;129177;-58
2022/06/10 01:06:38;;;;;;;1.23;0.30;;;;;;;20.74;48.31;101998.81;16229690;19;128033;-58
2022/06/10 01:12:34;;;;;;;1.65;0.40;;;;;;;20.75;48.31;102006.06;16224979;19;128184;-57
2022/06/10 01:18:15;;;;;;;0.70;0.22;;;;;;;20.73;48.18;102002.66;16229503;19;128351;-58
2022/06/10 01:24:06;;;;;;;0.85;0.20;;;;;;;20.72;48.32;102001.84;16229200;19;127606;-56
2022/06/10 01:30:00;;;;;;;0.50;0.20;;;;;;;20.72;48.11;101998.19;16225486;19;129805;-57
2022/06/10 01:35:36;;;;;;;0.82;0.45;;;;;;;20.72;48.31;101995.41;16228586;19;128745;-58
2022/06/10 01:40:58;;;;;;;;;;;;;;;20.67;48.39;101998.88;16229448;19;128238;-56
2022/06/10 01:46:31;;;;;;;0.40;0.20;;;;;;;20.70;47.83;101992.88;16226658;19;127633;-57
2022/06/10 01:52:05;;;;;;;1.00;0.20;;;;;;;20.70;47.88;102000.34;16222350;19;129509;-56
2022/06/10 01:57:35;;;;;;;0.85;0.10;;;;;;;20.69;48.31;101998.66;16158523;19;129092;-58
2022/06/10 02:03:03;;;;;;;1.02;0.20;;;;;;;20.67;48.22;101992.50;16135903;19;129310;-57
2022/06/10 02:08:29;;;;;;;;;;;;;;;20.64;48.28;101987.41;16143498;19;131531;-57
2022/06/10 02:13:50;;;;;;;0.98;0.20;;;;;;;20.66;47.77;101996.34;16142772;19;129436;-57
2022/06/10 02:19:23;;;;;;;0.88;0.28;;;;;;;20.65;47.87;102000.22;16143123;19;129302;-57
2022/06/10 02:25:00;;;;;;;0.38;0.17;;;;;;;20.65;47.77;102000.22;16140726;19;129038;-56
2022/06/10 02:30:54;;;;;;;1.33;0.35;;;;;;;20.64;47.98;102001.31;16137427;19;129804;-57
2022/06/10 02:36:25;;;;;;;1.30;0.30;;;;;;;20.65;47.94;102012.16;16131093;19;130624;-58
2022/06/10 02:41:55;;;;;;;0.22;0.20;;;;;;;20.64;47.96;102021.59;16131063;19;130012;-57
2022/06/10 02:47:41;;;;;;;1.25;0.20;;;;;;;20.65;48.01;102023.28;16130530;19;129052;-57
2022/06/10 02:53:04;;;;;;;0.97;0.30;;;;;;;20.63;47.78;102021.84;16126353;19;129583;-56
2022/06/10 03:04:23;;;;;;;0.20;0.10;;;;;;;20.62;47.94;102022.91;16128644;19;129890;-57
2022/06/10 03:10:06;;;;;;;0.73;0.20;;;;;;;20.63;48.13;102019.06;16130582;19;131621;-57
2022/06/10 03:16:11;;;;;;;0.95;0.30;;;;;;;20.62;47.89;102032.09;16138490;19;129475;-56
2022/06/10 03:22:00;;;;;;;1.70;0.30;;;;;;;20.60;47.81;102026.78;16136580;19;129278;-58
2022/06/10 03:27:38;;;;;;;0.10;0.10;;;;;;;20.60;47.77;102032.34;16135229;19;129098;-57
2022/06/10 03:33:23;;;;;;;0.30;0.10;;;;;;;20.59;47.89;102032.59;16135501;19;129682;-58
2022/06/10 03:38:48;;;;;;;0.50;0.20;;;;;;;20.58;47.58;102034.50;16135338;19;129155;-57
2022/06/10 03:44:15;;;;;;;1.10;0.55;;;;;;;20.57;48.03;102040.31;16134151;19;129607;-56
2022/06/10 03:49:49;;;;;;;0.90;0.40;;;;;;;20.59;47.59;102035.38;16131782;19;129715;-57
2022/06/10 03:55:16;;;;;;;1.80;0.43;;;;;;;20.57;47.80;102034.75;16134795;19;129744;-57
2022/06/10 04:00:39;;;;;;;0.60;0.30;;;;;;;20.57;47.65;102035.56;16135242;19;129502;-57
2022/06/10 04:06:01;;;;;;;1.55;0.30;;;;;;;20.56;47.63;102035.81;16133023;19;129597;-57
2022/06/10 04:11:42;;;;;;;0.93;0.30;;;;;;;20.55;47.57;102034.97;16145240;19;129817;-57
2022/06/10 04:17:05;;;;;;;0.70;0.22;;;;;;;20.55;47.71;102043.31;16150864;19;129755;-57
2022/06/10 04:22:27;;;;;;;1.08;0.20;;;;;;;20.54;47.75;102044.41;16149476;19;128845;-57
2022/06/10 04:27:49;;;;;;;0.98;0.30;;;;;;;20.54;47.94;102044.41;16149485;19;130349;-56
2022/06/10 04:33:12;;;;;;;0.77;0.20;;;;;;;20.54;47.72;102041.63;16148321;19;129329;-55
2022/06/10 04:38:34;;;;;;;0.35;0.13;;;;;;;20.53;47.51;102048.25;16148513;19;130568;-56
2022/06/10 04:43:56;;;;;;;1.10;0.30;;;;;;;20.53;47.49;102037.16;16146437;19;129966;-56
2022/06/10 04:49:18;;;;;;;1.42;0.28;;;;;;;20.53;47.64;102037.16;16146145;19;130591;-56
2022/06/10 04:54:39;;;;;;;0.50;0.38;;;;;;;20.51;47.90;102028.19;16146640;19;129341;-56
2022/06/10 05:00:04;;;;;;;0.95;0.25;;;;;;;20.53;47.44;102031.59;16145658;19;130063;-56
2022/06/10 05:05:26;;;;;;;1.02;0.20;;;;;;;20.52;47.65;102035.44;16143865;19;130449;-57
2022/06/10 05:10:48;;;;;;;0.75;0.17;;;;;;;20.52;47.95;102034.56;16143063;19;129212;-57
2022/06/10 05:16:11;;;;;;;1.20;0.40;;;;;;;20.52;47.78;102029.03;16145613;19;130033;-56
2022/06/10 05:21:33;;;;;;;4.70;0.63;;;;;;;20.50;47.79;102025.63;16142784;19;130076;-57
2022/06/10 05:26:55;;;;;;;6.97;0.40;;;;;;;20.50;47.38;102020.94;16140938;19;130470;-57
2022/06/10 05:32:17;;;;;;;5.55;0.52;;;;;;;20.50;47.25;102025.63;16139001;19;129557;-56
2022/06/10 05:37:40;;;;;;;7.20;0.85;;;;;;;20.50;47.62;102025.63;16145518;19;130999;-56
2022/06/10 05:43:13;;;;;;;4.55;0.57;;;;;;;20.50;47.45;102032.03;16144903;19;130251;-56
2022/06/10 05:48:35;;;;;;;2.20;0.50;;;;;;;20.50;47.19;102032.03;16143357;19;129313;-54
2022/06/10 05:53:57;;;;;;;6.07;0.65;;;;;;;20.50;47.33;102037.59;16138749;19;129458;-57
2022/06/10 05:59:19;;;;;;;3.03;0.50;;;;;;;20.50;47.52;102037.59;16142323;19;129312;-57
2022/06/10 06:04:42;;;;;;;2.67;0.47;;;;;;;20.50;47.66;102037.59;16135251;19;129481;-56
2022/06/10 06:10:05;;;;;;;2.50;0.50;;;;;;;20.50;47.26;102037.59;16139797;19;129477;-55
2022/06/10 06:15:26;;;;;;;2.30;0.60;;;;;;;20.49;47.30;102035.91;16143570;19;129393;-56
2022/06/10 06:20:48;;;;;;;2.00;0.60;;;;;;;20.49;47.11;102055.34;16142673;19;129369;-57
2022/06/10 06:26:16;;;;;;;2.05;0.47;;;;;;;20.50;47.40;102053.41;16140532;19;128907;-57
2022/06/10 06:31:39;;;;;;;2.58;0.35;;;;;;;20.49;47.17;102058.13;16135111;19;129903;-55
2022/06/10 06:37:01;;;;;;;2.50;0.60;;;;;;;20.50;46.99;102058.97;16140088;19;129783;-56
2022/06/10 06:42:23;;;;;;;2.08;0.40;;;;;;;20.49;47.39;102063.69;16137438;19;128835;-55
2022/06/10 06:47:45;;;;;;;2.15;0.40;;;;;;;20.50;47.27;102070.09;16139771;19;128856;-54
2022/06/10 06:53:06;;;;;;;2.13;0.32;;;;;;;20.49;47.11;102066.47;16134762;19;129293;-56
2022/06/10 06:58:29;;;;;;;1.33;0.50;;;;;;;20.50;47.31;102070.97;16134463;19;128906;-57
2022/06/10 07:03:51;;;;;;;1.27;0.52;;;;;;;20.51;46.87;102069.88;16139736;19;129111;-55
2022/06/10 07:09:13;;;;;;;1.70;0.40;;;;;;;20.51;46.95;102067.09;16137718;19;129382;-58
2022/06/10 07:14:35;;;;;;;2.10;0.60;;;;;;;20.53;46.78;102076.06;16138159;19;130135;-55
2022/06/10 07:19:58;;;;;;;1.58;0.73;;;;;;;20.54;46.53;102072.22;16137560;19;130452;-57
2022/06/10 07:25:21;;;;;;;2.38;0.52;;;;;;;20.56;46.97;102075.56;16135540;19;129955;-57
2022/06/10 07:30:44;;;;;;;6.63;1.00;;;;;;;20.57;46.93;102076.44;16134816;19;130051;-56
2022/06/10 07:36:06;;;;;;;5.65;0.88;;;;;;;20.57;46.78;102077.28;16132294;19;129426;-56
2022/06/10 07:47:12;;;;;;;6.80;1.20;;;;;;;20.59;46.54;102077.91;16135466;19;129470;-55
2022/06/10 07:52:34;;;;;;;5.18;0.60;;;;;;;20.62;46.61;102078.53;16131702;19;129390;-56
2022/06/10 07:57:56;;;;;;;6.18;1.38;;;;;;;20.65;46.35;102083.63;16137392;19;131290;-56
2022/06/10 08:03:18;;;;;;;5.03;0.88;;;;;;;20.67;46.19;102075.91;16144645;19;130413;-56
2022/06/10 08:08:40;;;;;;;4.00;0.80;;;;;;;20.69;46.21;102080.16;16148807;19;129436;-54
2022/06/10 08:14:03;;;;;;;3.47;0.68;;;;;;;20.70;45.79;102080.97;16143025;19;130184;-56
2022/06/10 08:19:25;;;;;;;4.80;0.82;;;;;;;20.74;46.08;102085.00;16146902;19;128882;-55
2022/06/10 08:24:47;;;;;;;5.32;0.70;;;;;;;20.80;45.62;102084.09;16147706;19;129156;-56
2022/06/10 08:30:14;;;;;;;4.85;0.82;;;;;;;20.86;45.60;102079.56;16148000;19;129834;-53
2022/06/10 08:35:36;;;;;;;2.05;0.68;;;;;;;20.88;45.23;102078.22;16147450;19;129516;-54
2022/06/10 08:41:13;;;;;;;3.42;0.85;;;;;;;20.92;45.26;102080.56;16142144;19;129987;-56
2022/06/10 08:47:03;;;;;;;2.53;0.80;;;;;;;20.94;45.33;102082.00;16146557;19;129466;-54
2022/06/10 08:52:36;;;;;;;3.75;0.68;;;;;;;20.97;45.52;102080.69;16143739;19;129543;-55
2022/06/10 08:58:03;;;;;;;3.08;0.70;;;;;;;21.03;45.36;102076.97;16141864;19;129254;-55
2022/06/10 09:04:07;;;;;;;3.80;0.70;;;;;;;21.06;45.25;102080.13;16145187;19;129277;-54
2022/06/10 09:09:32;;;;;;;2.67;0.60;;;;;;;21.11;45.02;102082.22;16138474;19;129749;-55
2022/06/10 09:15:03;;;;;;;2.13;0.53;;;;;;;21.13;44.99;102080.03;16136698;19;130726;-55
2022/06/10 09:20:40;;;;;;;1.73;0.40;;;;;;;21.18;45.25;102082.13;16132995;19;129533;-53
2022/06/10 09:26:09;;;;;;;2.83;0.90;;;;;;;21.19;44.96;102090.22;16135653;19;129672;-55
2022/06/10 09:31:45;;;;;;;1.65;0.70;;;;;;;21.22;45.08;102081.41;16133664;19;129333;-55
2022/06/10 09:37:34;;;;;;;2.67;0.80;;;;;;;21.26;44.95;102090.13;16129877;19;128905;-55
2022/06/10 09:43:33;;;;;;;2.15;0.73;;;;;;;21.28;44.92;102087.13;16139553;19;129408;-58
2022/06/10 09:49:46;;;;;;;2.47;0.70;;;;;;;21.25;44.78;102088.44;16144852;19;128806;-56
2022/06/10 09:55:37;;;;;;;6.32;1.45;;;;;;;21.29;44.77;102083.25;16142468;19;130768;-55
2022/06/10 10:01:17;;;;;;;4.15;1.25;;;;;;;21.29;45.07;102086.03;16143292;19;129593;-53
2022/06/10 10:07:00;;;;;;;3.90;1.00;;;;;;;21.30;44.79;102084.94;16130593;19;129836;-55
2022/06/10 10:12:28;;;;;;;7.05;1.20;;;;;;;21.29;45.21;102088.81;16120511;19;129208;-55
2022/06/10 10:17:59;;;;;;;4.18;1.00;;;;;;;21.32;45.23;102082.75;16122824;19;131016;-54
2022/06/10 10:23:37;;;;;;;5.78;1.23;;;;;;;21.33;45.43;102090.03;16134495;19;129486;-54
2022/06/10 10:29:05;;;;;;;6.20;1.40;;;;;;;21.34;45.30;102075.03;16140759;19;129816;-54
2022/06/10 10:34:32;;;;;;;5.03;1.10;;;;;;;21.33;45.55;102079.75;16137073;19;130506;-55
2022/06/10 10:39:59;;;;;;;6.43;1.27;;;;;;;21.34;45.57;102075.03;16140104;19;129372;-55
2022/06/10 10:45:36;;;;;;;5.93;1.50;;;;;;;21.37;45.73;102063.44;16139587;19;129802;-54
2022/06/10 10:51:05;;;;;;;5.45;1.25;;;;;;;21.36;46.04;102061.72;16136401;19;129236;-54
2022/06/10 10:56:32;;;;;;;7.30;1.42;;;;;;;21.34;45.86;102061.13;16138611;19;128828;-55
2022/06/10 11:01:54;;;;;;;4.80;1.48;;;;;;;21.34;46.03;102064.75;16141931;19;129494;-55
2022/06/10 11:07:21;;;;;;;6.35;1.25;;;;;;;21.34;46.27;102059.19;16139626;19;129234;-55
2022/06/10 11:12:49;;;;;;;4.10;1.23;;;;;;;21.33;46.20;102056.63;16135027;19;129452;-54
2022/06/10 11:18:13;;;;;;;5.10;1.10;;;;;;;21.34;46.38;102063.91;16143032;19;129128;-55
2022/06/10 11:23:35;;;;;;;4.03;1.33;;;;;;;21.34;46.25;102058.31;16153837;19;129283;-54
2022/06/10 11:29:03;;;;;;;5.32;1.13;;;;;;;21.35;46.56;102054.47;16152236;19;130126;-53
2022/06/10 11:34:34;;;;;;;3.58;1.10;;;;;;;21.34;46.42;102058.31;16148414;19;129353;-54
2022/06/10 11:40:16;;;;;;;6.55;1.60;;;;;;;21.34;46.36;102044.41;16152339;19;129215;-55
2022/06/10 11:45:46;;;;;;;4.10;0.98;;;;;;;21.33;46.64;102039.94;16152142;19;129050;-54
2022/06/10 11:51:11;;;;;;;4.45;1.40;;;;;;;21.34;46.79;102041.63;16149802;19;130373;-54
2022/06/10 12:02:44;;;;;;;5.22;1.40;;;;;;;21.36;46.42;102028.31;16151670;19;129174;-55
2022/06/10 12:08:17;;;;;;;4.88;1.33;;;;;;;21.36;46.72;102022.75;16151703;19;129032;-55
2022/06/10 12:13:48;;;;;;;4.57;1.77;;;;;;;21.35;46.48;102019.09;16146424;19;129565;-55
2022/06/10 12:19:20;;;;;;;5.97;1.85;;;;;;;21.35;46.78;102015.50;16149567;19;128950;-55
2022/06/10 12:24:46;;;;;;;3.65;1.00;;;;;;;21.36;46.17;102001.31;16151122;19;130063;-54
2022/06/10 12:30:23;;;;;;;6.15;1.60;;;;;;;21.37;46.46;102002.19;16148855;19;129335;-54
2022/06/10 12:35:46;;;;;;;3.40;1.42;;;;;;;21.37;46.56;101996.63;16144970;19;132057;-54
2022/06/10 12:41:15;;;;;;;5.70;1.67;;;;;;;21.38;46.43;101998.31;16149576;19;128785;-55
2022/06/10 12:46:43;;;;;;;5.72;1.80;;;;;;;21.37;46.55;101993.84;16149352;19;129906;-53
2022/06/10 12:52:32;;;;;;;5.03;1.67;;;;;;;21.37;46.25;102003.03;16145250;19;130258;-54
2022/06/10 12:57:55;;;;;;;7.00;2.15;;;;;;;21.34;46.20;102008.22;16142597;19;129738;-51
2022/06/10 13:03:22;;;;;;;4.03;1.60;;;;;;;21.34;46.79;102002.66;16147464;19;129392;-53
2022/06/10 13:08:49;;;;;;;6.85;2.08;;;;;;;21.34;46.65;102008.22;16147224;19;129582;-50
2022/06/10 13:14:25;;;;;;;3.60;1.60;;;;;;;21.34;46.72;102011.00;16140016;19;129524;-54
2022/06/10 13:19:53;;;;;;;6.32;2.03;;;;;;;21.35;46.67;102007.97;16146159;19;129773;-55
2022/06/10 13:25:14;;;;;;;7.55;2.00;;;;;;;21.35;46.58;102005.19;16146128;19;129474;-52
2022/06/10 13:30:36;;;;;;;6.47;1.80;;;;;;;21.37;46.42;102005.81;16144113;19;130093;-54
2022/06/10 13:35:58;;;;;;;5.55;1.73;;;;;;;21.38;46.57;102003.88;16145584;19;129576;-51
2022/06/10 13:41:48;;;;;;;4.50;1.83;;;;;;;21.39;46.57;102011.16;16140897;19;129331;-54
2022/06/10 13:47:31;;;;;;;5.38;1.85;;;;;;;21.37;46.83;102007.75;16144138;19;129279;-55
2022/06/10 13:53:04;;;;;;;4.68;1.58;;;;;;;21.37;46.81;102010.53;16135227;19;129385;-54
2022/06/10 13:58:30;;;;;;;6.80;1.50;;;;;;;21.36;46.88;102006.88;16140410;19;129447;-53
2022/06/10 14:03:58;;;;;;;5.65;1.67;;;;;;;21.41;46.88;102008.13;16141588;19;128896;-55
2022/06/10 14:09:27;;;;;;;5.70;1.92;;;;;;;21.41;47.06;102009.00;16141224;19;129595;-53
2022/06/10 14:14:51;;;;;;;5.43;1.65;;;;;;;21.39;47.10;102010.28;16136603;19;129830;-54
2022/06/10 14:20:15;;;;;;;7.25;1.60;;;;;;;21.39;46.74;102007.50;16142405;19;129075;-55
2022/06/10 14:25:37;;;;;;;3.83;1.17;;;;;;;21.36;46.71;101992.97;16140748;19;129569;-54
2022/06/10 14:31:00;;;;;;;6.55;1.48;;;;;;;21.36;46.94;101994.94;16136408;19;129801;-55
2022/06/10 14:36:26;;;;;;;3.63;1.30;;;;;;;21.33;46.98;101995.41;16140832;19;128972;-55
2022/06/10 14:42:12;;;;;;;7.57;1.17;;;;;;;21.27;46.79;101988.84;16140635;19;129298;-53
2022/06/10 14:47:35;;;;;;;6.67;1.33;;;;;;;21.25;47.31;101987.41;16139141;19;129326;-53
2022/06/10 14:52:57;;;;;;;4.90;1.90;;;;;;;21.24;47.38;101992.09;16132823;19;129078;-52
2022/06/10 14:58:22;;;;;;;3.58;1.50;;;;;;;21.22;47.55;101984.00;16134664;19;131731;-53
2022/06/10 15:03:44;;;;;;;7.83;1.60;;;;;;;21.21;47.29;101982.31;16138903;19;130301;-53
2022/06/10 15:09:24;;;;;;;10.85;1.80;;;;;;;21.21;47.07;101985.09;16135124;19;129269;-54
2022/06/10 15:14:47;;;;;;;5.75;1.50;;;;;;;21.20;47.59;101988.94;16134218;19;132046;-53
2022/06/10 15:20:14;;;;;;;5.50;1.38;;;;;;;21.21;47.64;101985.09;16138454;19;130572;-54
2022/06/10 15:25:42;;;;;;;5.30;1.35;;;;;;;21.24;47.70;101982.91;16137978;19;130736;-51
2022/06/10 15:31:05;;;;;;;6.65;1.52;;;;;;;21.25;47.76;101970.69;16137371;19;129358;-53
2022/06/10 15:42:09;;;;;;;6.13;1.95;;;;;;;21.27;47.97;101951.84;16137445;19;129215;-52
2022/06/10 15:47:31;;;;;;;7.75;2.22;;;;;;;21.27;48.00;101958.22;16133034;19;129318;-54
2022/06/10 15:52:54;;;;;;;7.30;1.40;;;;;;;21.26;48.08;101964.88;16131407;19;130162;-52
2022/06/10 15:58:18;;;;;;;4.32;1.40;;;;;;;21.27;48.08;101961.00;16131319;19;130043;-54
2022/06/10 16:03:40;;;;;;;5.90;1.57;;;;;;;21.27;48.33;101957.41;16134515;19;129128;-54
2022/06/10 16:09:02;;;;;;;5.20;1.45;;;;;;;21.26;48.03;101950.13;16146972;19;129336;-51
2022/06/10 16:14:24;;;;;;;4.57;1.40;;;;;;;21.27;48.02;101957.41;16146041;19;129048;-53
2022/06/10 16:19:46;;;;;;;10.07;2.10;;;;;;;21.28;47.90;101957.16;16149189;19;130047;-51
2022/06/10 16:25:11;;;;;;;13.35;3.88;;;;;;;21.29;48.36;101955.22;16148598;19;130274;-53
2022/06/10 16:30:33;;;;;;;13.20;4.00;;;;;;;21.30;48.38;101952.19;16148339;19;132040;-53
2022/06/10 16:35:56;;;;;;;13.65;3.92;;;;;;;21.33;48.19;101962.00;16143237;19;129290;-52
2022/06/10 16:41:30;;;;;;;9.70;3.40;;;;;;;21.32;48.50;101955.59;16150733;19;129200;-53
2022/06/10 16:46:57;;;;;;;11.48;3.22;;;;;;;21.32;48.63;101954.72;16148283;19;129620;-52
2022/06/10 16:52:23;;;;;;;9.68;3.33;;;;;;;21.32;48.59;101949.16;16144073;19;133101;-54
2022/06/10 16:57:48;;;;;;;;;;;;;;;21.30;48.67;101951.34;16146124;19;129113;-52
2022/06/10 17:03:12;;;;;;;10.00;3.05;;;;;;;21.32;48.76;101954.72;16144553;19;128980;-53
2022/06/10 17:08:34;;;;;;;9.98;2.72;;;;;;;21.31;48.39;101958.59;16145349;19;128985;-53
2022/06/10 17:13:56;;;;;;;9.45;2.70;;;;;;;21.30;48.69;101952.19;16141284;19;129583;-52
2022/06/10 17:19:20;;;;;;;8.77;2.25;;;;;;;21.30;48.66;101951.34;16143567;19;129255;-53
2022/06/10 17:24:43;;;;;;;6.22;1.88;;;;;;;21.29;48.77;101955.22;16143261;19;129140;-51
2022/06/10 17:30:08;;;;;;;8.88;2.53;;;;;;;21.27;48.63;101952.66;16134721;19;129458;-56
2022/06/10 17:35:30;;;;;;;8.07;1.90;;;;;;;21.25;48.86;101962.34;16139881;19;129464;-54
2022/06/10 17:40:54;;;;;;;6.57;2.00;;;;;;;21.25;48.46;101967.91;16142194;19;129900;-50
2022/06/10 17:46:40;;;;;;;12.38;2.35;;;;;;;21.24;48.40;101958.72;16138443;19;129392;-53
2022/06/10 17:52:06;;;;;;;6.72;2.22;;;;;;;21.22;48.26;101964.53;16138862;19;130196;-54
2022/06/10 17:57:33;;;;;;;;;;;;;;;21.18;48.42;101963.28;16140990;19;130008;-53
2022/06/10 18:02:59;;;;;;;4.45;1.50;;;;;;;21.21;48.48;101965.59;16140794;19;129815;-54
2022/06/10 18:08:22;;;;;;;;;;;;;;;21.17;48.81;101978.28;16142085;19;129361;-54
2022/06/10 18:19:39;;;;;;;6.13;1.65;;;;;;;21.17;48.60;101972.72;16138427;19;131760;-53
2022/06/10 18:25:02;;;;;;;5.15;2.00;;;;;;;21.17;48.75;101975.50;16139221;19;129652;-53
2022/06/10 18:30:25;;;;;;;6.25;2.13;;;;;;;21.18;48.44;101973.59;16138848;19;129980;-54
2022/06/10 18:35:51;;;;;;;6.40;2.17;;;;;;;21.17;48.51;101981.06;16133864;19;130253;-54
2022/06/10 18:41:18;;;;;;;5.93;1.63;;;;;;;21.17;48.33;101978.28;16139604;19;129503;-54
2022/06/10 18:46:39;;;;;;;5.97;2.15;;;;;;;21.17;48.36;101981.06;16137302;19;129701;-51
2022/06/10 18:52:02;;;;;;;4.85;1.90;;;;;;;21.21;48.54;101984.25;16132912;19;129367;-51
2022/06/10 18:57:24;;;;;;;4.32;1.77;;;;;;;21.18;48.50;101977.22;16135679;19;129635;-54
2022/06/10 19:02:51;;;;;;;6.75;1.98;;;;;;;21.18;48.76;101974.44;16131849;19;129701;-52
2022/06/10 19:08:13;;;;;;;21.13;2.03;;;;;;;21.18;48.73;101977.22;16136085;19;129580;-52
2022/06/10 19:13:35;;;;;;;16.65;1.88;;;;;;;21.19;48.58;101972.50;16128218;19;129614;-53
2022/06/10 19:19:08;;;;;;;21.08;2.28;;;;;;;21.22;48.75;101972.88;16130213;19;129540;-49
2022/06/10 19:24:33;;;;;;;28.30;2.13;;;;;;;21.27;49.43;101974.09;16136854;19;129020;-53
2022/06/10 19:29:57;;;;;;;13.52;1.77;;;;;;;21.25;48.98;101977.09;16136761;19;129357;-51
2022/06/10 19:35:25;;;;;;;15.10;1.88;;;;;;;21.28;48.91;101986.94;16133234;19;129449;-51
2022/06/10 19:40:50;;;;;;;12.38;1.60;;;;;;;21.29;49.10;101994.19;16144605;19;129409;-50
2022/06/10 19:46:12;;;;;;;9.97;1.73;;;;;;;21.29;49.13;101996.97;16151570;19;129927;-46
2022/06/10 19:51:37;;;;;;;9.38;1.80;;;;;;;21.31;49.58;102003.13;16147624;19;129606;-54
2022/06/10 19:57:01;;;;;;;22.05;2.25;;;;;;;21.28;49.33;102006.41;16143564;19;132036;-55
2022/06/10 20:02:26;;;;;;;30.45;1.67;;;;;;;21.26;49.60;102011.38;16140600;19;129849;-54
2022/06/10 20:07:51;;;;;;;14.53;1.37;;;;;;;21.25;49.41;102015.22;16134887;19;129811;-54
2022/06/10 20:13:15;;;;;;;15.75;1.45;;;;;;;21.21;49.34;102015.69;16136751;19;130241;-54
2022/06/10 20:18:39;;;;;;;15.63;1.80;;;;;;;21.22;49.21;102019.34;16142192;19;130233;-53
2022/06/10 20:24:01;;;;;;;5.20;1.13;;;;;;;21.20;49.52;102022.34;16146594;19;129531;-53
2022/06/10 20:29:23;;;;;;;12.52;1.50;;;;;;;21.19;49.44;102028.16;16149300;19;129389;-52
2022/06/10 20:35:32;;;;;;;10.38;1.40;;;;;;;21.19;49.42;102028.16;16144166;19;129318;-53
2022/06/10 20:40:55;;;;;;;6.80;1.42;;;;;;;21.16;49.79;102026.72;16147740;19;129224;-53
2022/06/10 20:46:26;;;;;;;7.75;1.13;;;;;;;21.16;49.51;102028.63;16147133;19;130254;-55
2022/06/10 20:51:51;;;;;;;8.57;1.23;;;;;;;21.14;49.63;102028.88;16140130;19;129224;-54
2022/06/10 20:57:15;;;;;;;5.30;0.98;;;;;;;21.14;49.68;102028.00;16141316;19;130117;-54
2022/06/10 21:02:38;;;;;;;6.80;1.02;;;;;;;21.12;49.34;102033.81;16139695;19;129187;-54
2022/06/10 21:08:00;;;;;;;9.98;1.23;;;;;;;21.10;49.81;102024.84;16139013;19;130350;-54
2022/06/10 21:13:24;;;;;;;5.47;0.70;;;;;;;21.08;50.18;102021.47;16141983;19;129289;-55
2022/06/10 21:18:46;;;;;;;4.55;0.80;;;;;;;21.09;50.35;102031.50;16146039;19;129575;-52
2022/06/10 21:24:11;;;;;;;6.95;1.00;;;;;;;21.12;50.23;102016.25;16145221;19;130163;-55
2022/06/10 21:29:33;;;;;;;5.33;0.90;;;;;;;21.15;50.13;102030.56;16143593;19;129780;-56
2022/06/10 21:34:54;;;;;;;4.78;1.08;;;;;;;21.17;50.42;102025.59;16141791;19;129437;-55
2022/06/10 21:40:18;;;;;;;3.53;0.93;;;;;;;21.19;49.98;102037.34;16137997;19;129278;-55
2022/06/10 21:45:40;;;;;;;2.85;0.70;;;;;;;21.22;50.24;102038.81;16143432;19;130431;-52
2022/06/10 21:51:05;;;;;;;3.70;1.08;;;;;;;21.24;50.07;102030.22;16139438;19;129350;-55
2022/06/10 21:56:31;;;;;;;12.57;1.10;;;;;;;21.25;49.75;102021.63;16139090;19;129884;-56
2022/06/10 22:01:55;;;;;;;3.65;0.90;;;;;;;21.27;49.79;102033.38;16137306;19;129463;-55
2022/06/10 22:07:22;;;;;;;5.75;0.70;;;;;;;21.27;49.64;102032.53;16140797;19;131469;-51
2022/06/10 22:12:45;;;;;;;8.43;0.98;;;;;;;21.27;49.81;102032.53;16143207;19;130664;-56
2022/06/10 22:18:14;;;;;;;2.67;0.65;;;;;;;21.30;49.78;102046.84;16137753;19;129983;-55
2022/06/10 22:23:36;;;;;;;4.15;0.77;;;;;;;21.30;49.82;102034.81;16141659;19;129879;-54
2022/06/10 22:28:58;;;;;;;3.20;0.63;;;;;;;21.32;49.26;102035.44;16141136;19;131251;-55
2022/06/10 22:34:22;;;;;;;4.20;0.82;;;;;;;21.32;49.54;102033.53;16137263;19;128959;-54
2022/06/10 22:39:44;;;;;;;4.07;1.10;;;;;;;21.32;49.34;102050.22;16138311;19;129272;-54
2022/06/10 22:45:14;;;;;;;4.85;1.05;;;;;;;21.33;49.56;102051.06;16140109;19;130651;-54
2022/06/10 22:50:37;;;;;;;2.65;0.60;;;;;;;21.34;49.30;102055.53;16135506;19;128910;-53
2022/06/10 22:55:58;;;;;;;4.20;0.70;;;;;;;21.35;48.97;102051.69;16133541;19;129462;-54
2022/06/10 23:01:22;;;;;;;2.63;0.70;;;;;;;21.35;49.00;102049.72;16134600;19;130094;-54
2022/06/10 23:06:44;;;;;;;2.88;0.50;;;;;;;21.36;48.98;102050.59;16138776;19;129903;-55
2022/06/10 23:12:26;;;;;;;1.45;0.50;;;;;;;21.35;49.10;102058.09;16136745;19;129898;-55
2022/06/10 23:17:51;;;;;;;1.30;0.50;;;;;;;21.34;48.63;102052.75;16131240;19;129340;-55
2022/06/10 23:23:16;;;;;;;0.52;0.30;;;;;;;21.31;48.67;102058.78;16140946;19;129471;-55
2022/06/10 23:28:38;;;;;;;2.67;0.60;;;;;;;21.28;48.89;102062.06;16137832;19;128842;-53
2022/06/10 23:33:59;;;;;;;2.88;0.55;;;;;;;21.26;48.79;102067.03;16135176;19;130379;-55
2022/06/10 23:39:22;;;;;;;2.85;0.50;;;;;;;21.23;48.70;102051.66;16136256;19;129666;-54
2022/06/10 23:44:43;;;;;;;2.65;0.50;;;;;;;21.20;48.89;102069.66;16135792;19;129445;-53
